sensor_id;sensor_type;location;lat;lon;timestamp;P1;durP1;ratioP1;P2;durP2;ratioP2
18046;SDS011;9148;51.454;13.862;2022-08-21T00:02:18;18.30;;;11.90;;
18046;SDS011;9148;51.454;13.862;2022-08-21T00:04:47;14.27;;;11.15;;
18046;SDS011;9148;51.454;13.862;2022-08-21T00:07:13;13.45;;;11.20;;
18046;SDS011;9148;51.454;13.862;2022-08-21T00:09:39;13.98;;;9.95;;
18046;SDS011;9148;51.454;13.862;2022-08-21T00:12:05;12.77;;;11.02;;
18046;SDS011;9148;51.454;13.862;2022-08-21T00:14:32;15.32;;;11.32;;
18046;SDS011;9148;51.454;13.862;2022-08-21T00:16:59;16.67;;;11.63;;
18046;SDS011;9148;51.454;13.862;2022-08-21T00:19:26;13.60;;;9.70;;
18046;SDS011;9148;51.454;13.862;2022-08-21T00:21:52;18.20;;;11.75;;
18046;SDS011;9148;51.454;13.862;2022-08-21T00:24:19;14.98;;;11.45;;
18046;SDS011;9148;51.454;13.862;2022-08-21T00:26:47;16.77;;;13.38;;
18046;SDS011;9148;51.454;13.862;2022-08-21T00:29:14;13.25;;;8.95;;
18046;SDS011;9148;51.454;13.862;2022-08-21T00:31:40;17.60;;;10.60;;
18046;SDS011;9148;51.454;13.862;2022-08-21T00:34:07;15.77;;;11.13;;
18046;SDS011;9148;51.454;13.862;2022-08-21T00:36:35;17.23;;;11.13;;
18046;SDS011;9148;51.454;13.862;2022-08-21T00:39:01;14.32;;;11.05;;
18046;SDS011;9148;51.454;13.862;2022-08-21T00:41:29;14.55;;;10.95;;
18046;SDS011;9148;51.454;13.862;2022-08-21T00:43:55;15.07;;;11.68;;
18046;SDS011;9148;51.454;13.862;2022-08-21T00:46:21;19.48;;;11.93;;
18046;SDS011;9148;51.454;13.862;2022-08-21T00:48:47;15.98;;;10.75;;
18046;SDS011;9148;51.454;13.862;2022-08-21T00:51:14;14.07;;;11.55;;
18046;SDS011;9148;51.454;13.862;2022-08-21T00:53:51;14.80;;;10.50;;
18046;SDS011;9148;51.454;13.862;2022-08-21T00:56:21;15.10;;;11.30;;
18046;SDS011;9148;51.454;13.862;2022-08-21T00:58:49;14.85;;;10.88;;
18046;SDS011;9148;51.454;13.862;2022-08-21T01:01:17;16.17;;;11.50;;
18046;SDS011;9148;51.454;13.862;2022-08-21T01:03:43;17.42;;;12.10;;
18046;SDS011;9148;51.454;13.862;2022-08-21T01:06:10;15.05;;;11.48;;
18046;SDS011;9148;51.454;13.862;2022-08-21T01:08:36;15.00;;;10.43;;
18046;SDS011;9148;51.454;13.862;2022-08-21T01:11:02;21.05;;;11.68;;
18046;SDS011;9148;51.454;13.862;2022-08-21T01:13:30;15.27;;;10.75;;
18046;SDS011;9148;51.454;13.862;2022-08-21T01:16:00;16.02;;;10.52;;
18046;SDS011;9148;51.454;13.862;2022-08-21T01:18:30;14.73;;;11.77;;
18046;SDS011;9148;51.454;13.862;2022-08-21T01:21:00;12.40;;;10.20;;
18046;SDS011;9148;51.454;13.862;2022-08-21T01:23:33;11.30;;;8.48;;
18046;SDS011;9148;51.454;13.862;2022-08-21T01:26:01;12.02;;;9.45;;
18046;SDS011;9148;51.454;13.862;2022-08-21T01:28:28;15.38;;;10.40;;
18046;SDS011;9148;51.454;13.862;2022-08-21T01:31:07;15.63;;;9.55;;
18046;SDS011;9148;51.454;13.862;2022-08-21T01:33:35;16.23;;;9.75;;
18046;SDS011;9148;51.454;13.862;2022-08-21T01:36:01;11.82;;;9.70;;
18046;SDS011;9148;51.454;13.862;2022-08-21T01:38:27;12.40;;;9.18;;
18046;SDS011;9148;51.454;13.862;2022-08-21T01:40:53;11.75;;;9.32;;
18046;SDS011;9148;51.454;13.862;2022-08-21T01:43:19;12.85;;;9.98;;
18046;SDS011;9148;51.454;13.862;2022-08-21T01:45:45;14.73;;;10.57;;
18046;SDS011;9148;51.454;13.862;2022-08-21T01:48:10;18.67;;;10.05;;
18046;SDS011;9148;51.454;13.862;2022-08-21T01:50:36;10.65;;;8.82;;
18046;SDS011;9148;51.454;13.862;2022-08-21T01:53:02;15.60;;;10.10;;
18046;SDS011;9148;51.454;13.862;2022-08-21T01:55:28;14.57;;;11.30;;
18046;SDS011;9148;51.454;13.862;2022-08-21T01:57:54;9.65;;;8.50;;
18046;SDS011;9148;51.454;13.862;2022-08-21T02:00:21;12.98;;;9.65;;
18046;SDS011;9148;51.454;13.862;2022-08-21T02:02:48;16.08;;;9.80;;
18046;SDS011;9148;51.454;13.862;2022-08-21T02:05:14;10.77;;;8.73;;
18046;SDS011;9148;51.454;13.862;2022-08-21T02:07:42;15.25;;;9.90;;
18046;SDS011;9148;51.454;13.862;2022-08-21T02:10:13;11.40;;;9.63;;
18046;SDS011;9148;51.454;13.862;2022-08-21T02:12:45;11.55;;;8.00;;
18046;SDS011;9148;51.454;13.862;2022-08-21T02:15:11;11.32;;;8.88;;
18046;SDS011;9148;51.454;13.862;2022-08-21T02:17:41;15.50;;;10.93;;
18046;SDS011;9148;51.454;13.862;2022-08-21T02:20:25;12.77;;;8.70;;
18046;SDS011;9148;51.454;13.862;2022-08-21T02:22:53;15.80;;;9.38;;
18046;SDS011;9148;51.454;13.862;2022-08-21T02:25:20;13.80;;;9.50;;
18046;SDS011;9148;51.454;13.862;2022-08-21T02:27:47;13.80;;;9.75;;
18046;SDS011;9148;51.454;13.862;2022-08-21T02:30:14;11.48;;;8.07;;
18046;SDS011;9148;51.454;13.862;2022-08-21T02:32:49;17.75;;;10.63;;
18046;SDS011;9148;51.454;13.862;2022-08-21T02:35:15;16.95;;;10.18;;
18046;SDS011;9148;51.454;13.862;2022-08-21T02:37:48;16.27;;;10.52;;
18046;SDS011;9148;51.454;13.862;2022-08-21T02:40:22;12.50;;;10.77;;
18046;SDS011;9148;51.454;13.862;2022-08-21T02:42:52;12.35;;;10.52;;
18046;SDS011;9148;51.454;13.862;2022-08-21T02:45:18;13.25;;;11.38;;
18046;SDS011;9148;51.454;13.862;2022-08-21T02:47:52;12.85;;;10.70;;
18046;SDS011;9148;51.454;13.862;2022-08-21T02:50:21;15.73;;;11.40;;
18046;SDS011;9148;51.454;13.862;2022-08-21T02:52:53;17.05;;;11.13;;
18046;SDS011;9148;51.454;13.862;2022-08-21T02:55:20;16.77;;;13.15;;
18046;SDS011;9148;51.454;13.862;2022-08-21T02:57:54;18.02;;;11.90;;
18046;SDS011;9148;51.454;13.862;2022-08-21T03:00:22;15.45;;;10.50;;
18046;SDS011;9148;51.454;13.862;2022-08-21T03:02:49;12.85;;;10.90;;
18046;SDS011;9148;51.454;13.862;2022-08-21T03:05:15;16.95;;;12.77;;
18046;SDS011;9148;51.454;13.862;2022-08-21T03:07:43;15.73;;;10.57;;
18046;SDS011;9148;51.454;13.862;2022-08-21T03:10:11;13.50;;;11.23;;
18046;SDS011;9148;51.454;13.862;2022-08-21T03:12:37;14.52;;;9.45;;
18046;SDS011;9148;51.454;13.862;2022-08-21T03:15:03;14.75;;;10.55;;
18046;SDS011;9148;51.454;13.862;2022-08-21T03:17:34;17.17;;;11.48;;
18046;SDS011;9148;51.454;13.862;2022-08-21T03:20:00;12.52;;;10.50;;
18046;SDS011;9148;51.454;13.862;2022-08-21T03:22:29;15.13;;;11.98;;
18046;SDS011;9148;51.454;13.862;2022-08-21T03:24:55;13.82;;;11.57;;
18046;SDS011;9148;51.454;13.862;2022-08-21T03:27:22;16.80;;;10.95;;
18046;SDS011;9148;51.454;13.862;2022-08-21T03:29:49;13.90;;;10.50;;
18046;SDS011;9148;51.454;13.862;2022-08-21T03:32:15;11.80;;;10.68;;
18046;SDS011;9148;51.454;13.862;2022-08-21T03:34:40;13.35;;;9.18;;
18046;SDS011;9148;51.454;13.862;2022-08-21T03:37:07;13.02;;;11.00;;
18046;SDS011;9148;51.454;13.862;2022-08-21T03:39:34;10.55;;;9.45;;
18046;SDS011;9148;51.454;13.862;2022-08-21T03:42:00;12.20;;;10.05;;
18046;SDS011;9148;51.454;13.862;2022-08-21T03:44:26;14.48;;;9.65;;
18046;SDS011;9148;51.454;13.862;2022-08-21T03:46:53;12.45;;;10.00;;
18046;SDS011;9148;51.454;13.862;2022-08-21T03:49:20;12.05;;;10.10;;
18046;SDS011;9148;51.454;13.862;2022-08-21T03:51:46;12.95;;;9.35;;
18046;SDS011;9148;51.454;13.862;2022-08-21T03:54:12;13.60;;;10.93;;
18046;SDS011;9148;51.454;13.862;2022-08-21T03:56:38;14.18;;;9.98;;
18046;SDS011;9148;51.454;13.862;2022-08-21T03:59:04;16.98;;;9.48;;
18046;SDS011;9148;51.454;13.862;2022-08-21T04:06:41;14.40;;;9.88;;
18046;SDS011;9148;51.454;13.862;2022-08-21T04:09:07;17.17;;;11.75;;
18046;SDS011;9148;51.454;13.862;2022-08-21T04:11:33;18.15;;;11.00;;
18046;SDS011;9148;51.454;13.862;2022-08-21T04:13:59;11.73;;;9.98;;
18046;SDS011;9148;51.454;13.862;2022-08-21T04:16:24;13.90;;;10.40;;
18046;SDS011;9148;51.454;13.862;2022-08-21T04:18:50;11.98;;;9.68;;
18046;SDS011;9148;51.454;13.862;2022-08-21T04:21:16;14.80;;;9.80;;
18046;SDS011;9148;51.454;13.862;2022-08-21T04:23:42;11.48;;;9.35;;
18046;SDS011;9148;51.454;13.862;2022-08-21T04:26:07;13.68;;;8.55;;
18046;SDS011;9148;51.454;13.862;2022-08-21T04:28:35;13.35;;;8.98;;
18046;SDS011;9148;51.454;13.862;2022-08-21T04:31:00;15.93;;;10.50;;
18046;SDS011;9148;51.454;13.862;2022-08-21T04:33:26;14.10;;;11.23;;
18046;SDS011;9148;51.454;13.862;2022-08-21T04:35:52;13.02;;;9.45;;
18046;SDS011;9148;51.454;13.862;2022-08-21T04:38:18;12.55;;;9.82;;
18046;SDS011;9148;51.454;13.862;2022-08-21T04:40:44;9.93;;;8.48;;
18046;SDS011;9148;51.454;13.862;2022-08-21T04:43:10;11.43;;;8.95;;
18046;SDS011;9148;51.454;13.862;2022-08-21T04:45:38;12.80;;;9.57;;
18046;SDS011;9148;51.454;13.862;2022-08-21T04:48:08;11.73;;;9.43;;
18046;SDS011;9148;51.454;13.862;2022-08-21T04:50:47;10.75;;;9.07;;
18046;SDS011;9148;51.454;13.862;2022-08-21T04:53:22;10.68;;;9.55;;
18046;SDS011;9148;51.454;13.862;2022-08-21T04:56:10;13.88;;;9.38;;
18046;SDS011;9148;51.454;13.862;2022-08-21T04:58:40;12.48;;;9.10;;
18046;SDS011;9148;51.454;13.862;2022-08-21T05:01:09;12.90;;;9.45;;
18046;SDS011;9148;51.454;13.862;2022-08-21T05:03:38;11.82;;;9.30;;
18046;SDS011;9148;51.454;13.862;2022-08-21T05:06:06;9.75;;;8.80;;
18046;SDS011;9148;51.454;13.862;2022-08-21T05:08:38;12.80;;;9.55;;
18046;SDS011;9148;51.454;13.862;2022-08-21T05:11:05;11.93;;;9.85;;
18046;SDS011;9148;51.454;13.862;2022-08-21T05:13:31;12.95;;;8.77;;
18046;SDS011;9148;51.454;13.862;2022-08-21T05:15:58;16.65;;;9.70;;
18046;SDS011;9148;51.454;13.862;2022-08-21T05:18:23;13.40;;;9.90;;
18046;SDS011;9148;51.454;13.862;2022-08-21T05:20:49;12.75;;;10.00;;
18046;SDS011;9148;51.454;13.862;2022-08-21T05:23:15;13.13;;;10.13;;
18046;SDS011;9148;51.454;13.862;2022-08-21T05:25:41;11.95;;;9.63;;
18046;SDS011;9148;51.454;13.862;2022-08-21T05:28:08;12.85;;;8.57;;
18046;SDS011;9148;51.454;13.862;2022-08-21T05:30:35;11.70;;;8.63;;
18046;SDS011;9148;51.454;13.862;2022-08-21T05:33:03;13.32;;;8.65;;
18046;SDS011;9148;51.454;13.862;2022-08-21T05:35:30;12.00;;;9.10;;
18046;SDS011;9148;51.454;13.862;2022-08-21T05:37:57;13.73;;;8.70;;
18046;SDS011;9148;51.454;13.862;2022-08-21T05:40:23;13.50;;;9.05;;
18046;SDS011;9148;51.454;13.862;2022-08-21T05:42:50;10.10;;;9.05;;
18046;SDS011;9148;51.454;13.862;2022-08-21T05:45:17;12.75;;;8.40;;
18046;SDS011;9148;51.454;13.862;2022-08-21T05:47:43;9.93;;;8.60;;
18046;SDS011;9148;51.454;13.862;2022-08-21T05:50:08;11.43;;;10.13;;
18046;SDS011;9148;51.454;13.862;2022-08-21T05:52:34;11.38;;;10.18;;
18046;SDS011;9148;51.454;13.862;2022-08-21T05:55:00;19.92;;;9.40;;
18046;SDS011;9148;51.454;13.862;2022-08-21T05:57:26;14.90;;;9.40;;
18046;SDS011;9148;51.454;13.862;2022-08-21T05:59:52;9.82;;;8.77;;
18046;SDS011;9148;51.454;13.862;2022-08-21T06:02:18;13.38;;;8.50;;
18046;SDS011;9148;51.454;13.862;2022-08-21T06:04:45;17.98;;;10.07;;
18046;SDS011;9148;51.454;13.862;2022-08-21T06:07:11;13.77;;;7.70;;
18046;SDS011;9148;51.454;13.862;2022-08-21T06:09:37;11.35;;;7.70;;
18046;SDS011;9148;51.454;13.862;2022-08-21T06:12:07;11.50;;;8.55;;
18046;SDS011;9148;51.454;13.862;2022-08-21T06:14:36;10.70;;;7.35;;
18046;SDS011;9148;51.454;13.862;2022-08-21T06:17:05;13.25;;;8.98;;
18046;SDS011;9148;51.454;13.862;2022-08-21T06:19:33;10.73;;;7.10;;
18046;SDS011;9148;51.454;13.862;2022-08-21T06:21:59;11.38;;;8.00;;
18046;SDS011;9148;51.454;13.862;2022-08-21T06:24:25;16.60;;;9.82;;
18046;SDS011;9148;51.454;13.862;2022-08-21T06:26:51;8.65;;;7.80;;
18046;SDS011;9148;51.454;13.862;2022-08-21T06:29:18;10.45;;;7.20;;
18046;SDS011;9148;51.454;13.862;2022-08-21T06:31:45;12.07;;;6.90;;
18046;SDS011;9148;51.454;13.862;2022-08-21T06:34:12;10.80;;;6.50;;
18046;SDS011;9148;51.454;13.862;2022-08-21T06:36:39;9.00;;;7.45;;
18046;SDS011;9148;51.454;13.862;2022-08-21T06:39:04;9.68;;;6.68;;
18046;SDS011;9148;51.454;13.862;2022-08-21T06:41:30;11.05;;;7.85;;
18046;SDS011;9148;51.454;13.862;2022-08-21T06:43:56;9.52;;;6.18;;
18046;SDS011;9148;51.454;13.862;2022-08-21T06:46:23;9.45;;;6.53;;
18046;SDS011;9148;51.454;13.862;2022-08-21T06:48:51;8.07;;;7.35;;
18046;SDS011;9148;51.454;13.862;2022-08-21T06:51:17;7.55;;;5.55;;
18046;SDS011;9148;51.454;13.862;2022-08-21T06:53:42;8.60;;;6.53;;
18046;SDS011;9148;51.454;13.862;2022-08-21T06:56:08;9.15;;;7.38;;
18046;SDS011;9148;51.454;13.862;2022-08-21T06:58:34;9.48;;;6.80;;
18046;SDS011;9148;51.454;13.862;2022-08-21T07:01:00;8.80;;;7.10;;
18046;SDS011;9148;51.454;13.862;2022-08-21T07:03:28;5.78;;;5.13;;
18046;SDS011;9148;51.454;13.862;2022-08-21T07:06:04;8.45;;;6.05;;
18046;SDS011;9148;51.454;13.862;2022-08-21T07:08:31;7.47;;;5.10;;
18046;SDS011;9148;51.454;13.862;2022-08-21T07:10:58;5.28;;;4.13;;
18046;SDS011;9148;51.454;13.862;2022-08-21T07:13:26;7.55;;;4.72;;
18046;SDS011;9148;51.454;13.862;2022-08-21T07:15:53;5.70;;;4.70;;
18046;SDS011;9148;51.454;13.862;2022-08-21T07:18:18;4.93;;;4.38;;
18046;SDS011;9148;51.454;13.862;2022-08-21T07:20:44;8.85;;;5.75;;
18046;SDS011;9148;51.454;13.862;2022-08-21T07:23:21;6.13;;;4.30;;
18046;SDS011;9148;51.454;13.862;2022-08-21T07:25:51;11.05;;;5.20;;
18046;SDS011;9148;51.454;13.862;2022-08-21T07:28:17;6.00;;;4.90;;
18046;SDS011;9148;51.454;13.862;2022-08-21T07:30:42;16.67;;;4.63;;
18046;SDS011;9148;51.454;13.862;2022-08-21T07:33:08;7.43;;;5.28;;
18046;SDS011;9148;51.454;13.862;2022-08-21T07:35:34;6.40;;;4.78;;
18046;SDS011;9148;51.454;13.862;2022-08-21T07:38:00;5.78;;;4.68;;
18046;SDS011;9148;51.454;13.862;2022-08-21T07:40:25;5.00;;;3.90;;
18046;SDS011;9148;51.454;13.862;2022-08-21T07:42:51;5.15;;;4.15;;
18046;SDS011;9148;51.454;13.862;2022-08-21T07:45:18;5.00;;;4.05;;
18046;SDS011;9148;51.454;13.862;2022-08-21T07:47:46;6.55;;;3.88;;
18046;SDS011;9148;51.454;13.862;2022-08-21T07:50:14;3.05;;;2.75;;
18046;SDS011;9148;51.454;13.862;2022-08-21T07:52:40;3.90;;;3.45;;
18046;SDS011;9148;51.454;13.862;2022-08-21T07:55:09;4.32;;;3.15;;
18046;SDS011;9148;51.454;13.862;2022-08-21T07:57:38;3.47;;;2.70;;
18046;SDS011;9148;51.454;13.862;2022-08-21T08:00:05;3.08;;;2.38;;
18046;SDS011;9148;51.454;13.862;2022-08-21T08:02:35;4.82;;;2.40;;
18046;SDS011;9148;51.454;13.862;2022-08-21T08:05:02;4.15;;;2.95;;
18046;SDS011;9148;51.454;13.862;2022-08-21T08:07:30;6.97;;;2.25;;
18046;SDS011;9148;51.454;13.862;2022-08-21T08:09:56;5.60;;;2.72;;
18046;SDS011;9148;51.454;13.862;2022-08-21T08:12:23;2.72;;;2.33;;
18046;SDS011;9148;51.454;13.862;2022-08-21T08:14:54;2.67;;;2.45;;
18046;SDS011;9148;51.454;13.862;2022-08-21T08:17:23;4.32;;;2.60;;
18046;SDS011;9148;51.454;13.862;2022-08-21T08:19:50;5.57;;;2.00;;
18046;SDS011;9148;51.454;13.862;2022-08-21T08:22:16;3.53;;;2.38;;
18046;SDS011;9148;51.454;13.862;2022-08-21T08:24:44;3.45;;;1.80;;
18046;SDS011;9148;51.454;13.862;2022-08-21T08:27:11;2.53;;;2.28;;
18046;SDS011;9148;51.454;13.862;2022-08-21T08:29:37;2.65;;;1.90;;
18046;SDS011;9148;51.454;13.862;2022-08-21T08:32:03;2.10;;;1.90;;
18046;SDS011;9148;51.454;13.862;2022-08-21T08:34:32;1.48;;;1.38;;
18046;SDS011;9148;51.454;13.862;2022-08-21T08:36:58;2.95;;;1.35;;
18046;SDS011;9148;51.454;13.862;2022-08-21T08:39:24;3.28;;;1.77;;
18046;SDS011;9148;51.454;13.862;2022-08-21T08:41:51;2.75;;;2.42;;
18046;SDS011;9148;51.454;13.862;2022-08-21T08:44:30;2.10;;;1.90;;
18046;SDS011;9148;51.454;13.862;2022-08-21T08:46:55;2.00;;;1.75;;
18046;SDS011;9148;51.454;13.862;2022-08-21T08:55:06;1.77;;;1.27;;
18046;SDS011;9148;51.454;13.862;2022-08-21T08:57:41;1.58;;;1.42;;
18046;SDS011;9148;51.454;13.862;2022-08-21T09:00:11;2.97;;;1.38;;
18046;SDS011;9148;51.454;13.862;2022-08-21T09:02:41;2.13;;;1.35;;
18046;SDS011;9148;51.454;13.862;2022-08-21T09:05:13;2.22;;;1.10;;
18046;SDS011;9148;51.454;13.862;2022-08-21T09:07:53;1.15;;;0.80;;
18046;SDS011;9148;51.454;13.862;2022-08-21T09:22:09;1.38;;;1.27;;
18046;SDS011;9148;51.454;13.862;2022-08-21T09:27:45;1.33;;;0.88;;
18046;SDS011;9148;51.454;13.862;2022-08-21T09:30:11;1.70;;;0.93;;
18046;SDS011;9148;51.454;13.862;2022-08-21T09:32:38;1.33;;;0.80;;
18046;SDS011;9148;51.454;13.862;2022-08-21T09:40:36;0.82;;;0.82;;
18046;SDS011;9148;51.454;13.862;2022-08-21T09:43:15;1.08;;;0.90;;
18046;SDS011;9148;51.454;13.862;2022-08-21T09:45:45;1.48;;;0.90;;
18046;SDS011;9148;51.454;13.862;2022-08-21T09:48:20;4.63;;;0.85;;
18046;SDS011;9148;51.454;13.862;2022-08-21T09:50:50;1.08;;;0.70;;
18046;SDS011;9148;51.454;13.862;2022-08-21T09:55:52;2.25;;;1.17;;
18046;SDS011;9148;51.454;13.862;2022-08-21T09:58:41;0.93;;;0.55;;
18046;SDS011;9148;51.454;13.862;2022-08-21T10:01:15;1.35;;;1.10;;
18046;SDS011;9148;51.454;13.862;2022-08-21T10:04:02;1.27;;;0.73;;
18046;SDS011;9148;51.454;13.862;2022-08-21T10:06:35;1.75;;;0.63;;
18046;SDS011;9148;51.454;13.862;2022-08-21T10:09:05;0.85;;;0.32;;
18046;SDS011;9148;51.454;13.862;2022-08-21T10:11:35;1.30;;;0.70;;
18046;SDS011;9148;51.454;13.862;2022-08-21T10:17:17;1.25;;;0.60;;
18046;SDS011;9148;51.454;13.862;2022-08-21T10:20:14;4.28;;;1.20;;
18046;SDS011;9148;51.454;13.862;2022-08-21T10:22:53;1.95;;;0.70;;
18046;SDS011;9148;51.454;13.862;2022-08-21T10:25:58;0.40;;;0.40;;
18046;SDS011;9148;51.454;13.862;2022-08-21T10:37:01;1.60;;;0.65;;
18046;SDS011;9148;51.454;13.862;2022-08-21T10:40:21;0.45;;;0.38;;
18046;SDS011;9148;51.454;13.862;2022-08-21T10:46:52;0.50;;;0.43;;
18046;SDS011;9148;51.454;13.862;2022-08-21T10:49:38;0.75;;;0.70;;
18046;SDS011;9148;51.454;13.862;2022-08-21T10:55:16;0.63;;;0.55;;
18046;SDS011;9148;51.454;13.862;2022-08-21T10:57:56;0.82;;;0.70;;
18046;SDS011;9148;51.454;13.862;2022-08-21T11:00:34;1.50;;;0.75;;
18046;SDS011;9148;51.454;13.862;2022-08-21T11:03:24;0.63;;;0.55;;
18046;SDS011;9148;51.454;13.862;2022-08-21T11:06:23;0.57;;;0.43;;
18046;SDS011;9148;51.454;13.862;2022-08-21T11:08:52;0.65;;;0.65;;
18046;SDS011;9148;51.454;13.862;2022-08-21T11:11:29;3.03;;;0.60;;
18046;SDS011;9148;51.454;13.862;2022-08-21T11:14:09;1.45;;;0.77;;
18046;SDS011;9148;51.454;13.862;2022-08-21T11:17:09;3.85;;;0.77;;
18046;SDS011;9148;51.454;13.862;2022-08-21T11:19:48;2.15;;;0.63;;
18046;SDS011;9148;51.454;13.862;2022-08-21T11:22:43;0.40;;;0.40;;
18046;SDS011;9148;51.454;13.862;2022-08-21T11:25:17;0.68;;;0.68;;
18046;SDS011;9148;51.454;13.862;2022-08-21T11:27:59;0.50;;;0.50;;
18046;SDS011;9148;51.454;13.862;2022-08-21T11:30:57;0.90;;;0.68;;
18046;SDS011;9148;51.454;13.862;2022-08-21T11:33:44;0.65;;;0.65;;
18046;SDS011;9148;51.454;13.862;2022-08-21T11:36:45;0.40;;;0.40;;
18046;SDS011;9148;51.454;13.862;2022-08-21T11:42:40;0.90;;;0.43;;
18046;SDS011;9148;51.454;13.862;2022-08-21T11:45:22;0.75;;;0.68;;
18046;SDS011;9148;51.454;13.862;2022-08-21T11:50:34;4.15;;;0.65;;
18046;SDS011;9148;51.454;13.862;2022-08-21T11:55:48;0.30;;;0.30;;
18046;SDS011;9148;51.454;13.862;2022-08-21T11:58:32;0.90;;;0.45;;
18046;SDS011;9148;51.454;13.862;2022-08-21T12:01:07;0.75;;;0.47;;
18046;SDS011;9148;51.454;13.862;2022-08-21T12:03:40;1.75;;;0.98;;
18046;SDS011;9148;51.454;13.862;2022-08-21T12:06:27;0.57;;;0.57;;
18046;SDS011;9148;51.454;13.862;2022-08-21T12:09:03;1.25;;;0.77;;
18046;SDS011;9148;51.454;13.862;2022-08-21T12:12:13;0.55;;;0.38;;
18046;SDS011;9148;51.454;13.862;2022-08-21T12:14:43;5.15;;;0.63;;
18046;SDS011;9148;51.454;13.862;2022-08-21T12:17:19;1.17;;;0.70;;
18046;SDS011;9148;51.454;13.862;2022-08-21T12:19:58;0.57;;;0.57;;
18046;SDS011;9148;51.454;13.862;2022-08-21T12:22:38;0.40;;;0.40;;
18046;SDS011;9148;51.454;13.862;2022-08-21T12:25:10;1.48;;;0.70;;
18046;SDS011;9148;51.454;13.862;2022-08-21T12:27:52;0.30;;;0.30;;
18046;SDS011;9148;51.454;13.862;2022-08-21T12:32:55;2.25;;;1.02;;
18046;SDS011;9148;51.454;13.862;2022-08-21T12:35:47;0.35;;;0.30;;
18046;SDS011;9148;51.454;13.862;2022-08-21T12:43:37;0.63;;;0.40;;
18046;SDS011;9148;51.454;13.862;2022-08-21T12:46:17;0.20;;;0.20;;
18046;SDS011;9148;51.454;13.862;2022-08-21T12:48:48;0.90;;;0.50;;
18046;SDS011;9148;51.454;13.862;2022-08-21T12:55:11;0.43;;;0.40;;
18046;SDS011;9148;51.454;13.862;2022-08-21T12:57:41;0.70;;;0.52;;
18046;SDS011;9148;51.454;13.862;2022-08-21T13:00:08;1.63;;;0.55;;
18046;SDS011;9148;51.454;13.862;2022-08-21T13:02:38;0.43;;;0.20;;
18046;SDS011;9148;51.454;13.862;2022-08-21T13:05:12;0.63;;;0.52;;
18046;SDS011;9148;51.454;13.862;2022-08-21T13:07:44;0.28;;;0.28;;
18046;SDS011;9148;51.454;13.862;2022-08-21T13:12:52;0.63;;;0.63;;
18046;SDS011;9148;51.454;13.862;2022-08-21T13:15:22;1.67;;;0.60;;
18046;SDS011;9148;51.454;13.862;2022-08-21T13:17:54;0.82;;;0.25;;
18046;SDS011;9148;51.454;13.862;2022-08-21T13:20:27;0.30;;;0.30;;
18046;SDS011;9148;51.454;13.862;2022-08-21T13:23:00;1.00;;;0.40;;
18046;SDS011;9148;51.454;13.862;2022-08-21T13:25:52;0.70;;;0.20;;
18046;SDS011;9148;51.454;13.862;2022-08-21T13:28:19;0.75;;;0.30;;
18046;SDS011;9148;51.454;13.862;2022-08-21T13:30:46;0.32;;;0.32;;
18046;SDS011;9148;51.454;13.862;2022-08-21T13:33:19;0.40;;;0.30;;
18046;SDS011;9148;51.454;13.862;2022-08-21T13:38:31;1.42;;;0.60;;
18046;SDS011;9148;51.454;13.862;2022-08-21T13:41:04;1.17;;;0.30;;
18046;SDS011;9148;51.454;13.862;2022-08-21T13:43:43;0.25;;;0.25;;
18046;SDS011;9148;51.454;13.862;2022-08-21T13:46:13;0.75;;;0.50;;
18046;SDS011;9148;51.454;13.862;2022-08-21T13:48:40;1.40;;;0.55;;
18046;SDS011;9148;51.454;13.862;2022-08-21T13:51:07;1.02;;;0.40;;
18046;SDS011;9148;51.454;13.862;2022-08-21T13:53:35;0.50;;;0.30;;
18046;SDS011;9148;51.454;13.862;2022-08-21T13:56:21;0.68;;;0.30;;
18046;SDS011;9148;51.454;13.862;2022-08-21T13:58:51;0.43;;;0.20;;
18046;SDS011;9148;51.454;13.862;2022-08-21T14:01:19;0.45;;;0.40;;
18046;SDS011;9148;51.454;13.862;2022-08-21T14:03:54;1.50;;;0.60;;
18046;SDS011;9148;51.454;13.862;2022-08-21T14:06:27;3.20;;;0.98;;
18046;SDS011;9148;51.454;13.862;2022-08-21T14:09:07;0.47;;;0.30;;
18046;SDS011;9148;51.454;13.862;2022-08-21T14:11:36;0.50;;;0.50;;
18046;SDS011;9148;51.454;13.862;2022-08-21T14:14:05;0.45;;;0.45;;
18046;SDS011;9148;51.454;13.862;2022-08-21T14:16:54;0.47;;;0.47;;
18046;SDS011;9148;51.454;13.862;2022-08-21T14:19:27;0.30;;;0.30;;
18046;SDS011;9148;51.454;13.862;2022-08-21T14:22:21;2.08;;;0.57;;
18046;SDS011;9148;51.454;13.862;2022-08-21T14:24:48;0.82;;;0.65;;
18046;SDS011;9148;51.454;13.862;2022-08-21T14:27:16;1.35;;;0.38;;
18046;SDS011;9148;51.454;13.862;2022-08-21T14:29:44;0.47;;;0.40;;
18046;SDS011;9148;51.454;13.862;2022-08-21T14:32:12;1.55;;;0.50;;
18046;SDS011;9148;51.454;13.862;2022-08-21T14:34:43;0.70;;;0.40;;
18046;SDS011;9148;51.454;13.862;2022-08-21T14:37:09;0.57;;;0.40;;
18046;SDS011;9148;51.454;13.862;2022-08-21T14:39:35;0.52;;;0.28;;
18046;SDS011;9148;51.454;13.862;2022-08-21T14:42:00;0.35;;;0.35;;
18046;SDS011;9148;51.454;13.862;2022-08-21T14:44:27;2.13;;;0.40;;
18046;SDS011;9148;51.454;13.862;2022-08-21T14:46:53;0.52;;;0.45;;
18046;SDS011;9148;51.454;13.862;2022-08-21T14:49:20;0.38;;;0.38;;
18046;SDS011;9148;51.454;13.862;2022-08-21T14:51:46;0.30;;;0.30;;
18046;SDS011;9148;51.454;13.862;2022-08-21T14:54:11;1.50;;;0.80;;
18046;SDS011;9148;51.454;13.862;2022-08-21T14:56:37;0.70;;;0.60;;
18046;SDS011;9148;51.454;13.862;2022-08-21T14:59:04;0.30;;;0.20;;
18046;SDS011;9148;51.454;13.862;2022-08-21T15:01:34;0.40;;;0.40;;
18046;SDS011;9148;51.454;13.862;2022-08-21T15:04:02;2.50;;;0.40;;
18046;SDS011;9148;51.454;13.862;2022-08-21T15:06:28;1.05;;;0.70;;
18046;SDS011;9148;51.454;13.862;2022-08-21T15:08:54;1.38;;;0.80;;
18046;SDS011;9148;51.454;13.862;2022-08-21T15:11:20;0.90;;;0.40;;
18046;SDS011;9148;51.454;13.862;2022-08-21T15:13:48;0.50;;;0.40;;
18046;SDS011;9148;51.454;13.862;2022-08-21T15:16:21;0.93;;;0.50;;
18046;SDS011;9148;51.454;13.862;2022-08-21T15:18:47;0.65;;;0.50;;
18046;SDS011;9148;51.454;13.862;2022-08-21T15:21:13;0.40;;;0.40;;
18046;SDS011;9148;51.454;13.862;2022-08-21T15:23:39;1.13;;;0.30;;
18046;SDS011;9148;51.454;13.862;2022-08-21T15:26:04;1.00;;;0.38;;
18046;SDS011;9148;51.454;13.862;2022-08-21T15:28:31;8.77;;;0.40;;
18046;SDS011;9148;51.454;13.862;2022-08-21T15:30:59;0.50;;;0.50;;
18046;SDS011;9148;51.454;13.862;2022-08-21T15:33:25;0.68;;;0.43;;
18046;SDS011;9148;51.454;13.862;2022-08-21T15:35:52;0.80;;;0.43;;
18046;SDS011;9148;51.454;13.862;2022-08-21T15:38:18;1.33;;;0.50;;
18046;SDS011;9148;51.454;13.862;2022-08-21T15:40:43;1.50;;;0.50;;
18046;SDS011;9148;51.454;13.862;2022-08-21T15:43:16;1.60;;;0.43;;
18046;SDS011;9148;51.454;13.862;2022-08-21T15:45:52;0.50;;;0.50;;
18046;SDS011;9148;51.454;13.862;2022-08-21T15:48:20;0.77;;;0.70;;
18046;SDS011;9148;51.454;13.862;2022-08-21T15:50:46;0.30;;;0.30;;
18046;SDS011;9148;51.454;13.862;2022-08-21T15:53:12;1.63;;;0.93;;
18046;SDS011;9148;51.454;13.862;2022-08-21T15:55:38;0.93;;;0.75;;
18046;SDS011;9148;51.454;13.862;2022-08-21T15:58:04;0.70;;;0.50;;
18046;SDS011;9148;51.454;13.862;2022-08-21T16:00:31;0.50;;;0.50;;
18046;SDS011;9148;51.454;13.862;2022-08-21T16:03:00;0.30;;;0.30;;
18046;SDS011;9148;51.454;13.862;2022-08-21T16:05:30;1.48;;;0.50;;
18046;SDS011;9148;51.454;13.862;2022-08-21T16:07:56;0.45;;;0.45;;
18046;SDS011;9148;51.454;13.862;2022-08-21T16:10:22;2.20;;;0.77;;
18046;SDS011;9148;51.454;13.862;2022-08-21T16:12:58;0.50;;;0.50;;
18046;SDS011;9148;51.454;13.862;2022-08-21T16:15:28;1.30;;;0.75;;